sensor_id;sensor_type;location;lat;lon;timestamp;P1;durP1;ratioP1;P2;durP2;ratioP2
10517;SDS011;5307;42.548;22.968;2022-09-13T00:01:43;6.90;;;4.80;;
10517;SDS011;5307;42.548;22.968;2022-09-13T00:04:10;7.50;;;5.22;;
10517;SDS011;5307;42.548;22.968;2022-09-13T00:06:37;5.50;;;5.00;;
10517;SDS011;5307;42.548;22.968;2022-09-13T00:09:05;5.30;;;4.80;;
10517;SDS011;5307;42.548;22.968;2022-09-13T00:11:32;6.10;;;4.75;;
10517;SDS011;5307;42.548;22.968;2022-09-13T00:13:58;6.22;;;4.75;;
10517;SDS011;5307;42.548;22.968;2022-09-13T00:16:26;6.10;;;4.97;;
10517;SDS011;5307;42.548;22.968;2022-09-13T00:18:54;8.82;;;5.07;;
10517;SDS011;5307;42.548;22.968;2022-09-13T00:21:22;8.35;;;4.70;;
10517;SDS011;5307;42.548;22.968;2022-09-13T00:23:50;6.75;;;5.13;;
10517;SDS011;5307;42.548;22.968;2022-09-13T00:26:20;5.35;;;4.85;;
10517;SDS011;5307;42.548;22.968;2022-09-13T00:28:49;6.10;;;5.10;;
10517;SDS011;5307;42.548;22.968;2022-09-13T00:31:17;7.13;;;5.05;;
10517;SDS011;5307;42.548;22.968;2022-09-13T00:33:44;6.13;;;4.50;;
10517;SDS011;5307;42.548;22.968;2022-09-13T00:36:12;7.72;;;5.03;;
10517;SDS011;5307;42.548;22.968;2022-09-13T00:38:40;5.63;;;5.10;;
10517;SDS011;5307;42.548;22.968;2022-09-13T00:41:10;5.93;;;5.30;;
10517;SDS011;5307;42.548;22.968;2022-09-13T00:43:42;6.03;;;5.15;;
10517;SDS011;5307;42.548;22.968;2022-09-13T00:46:15;7.50;;;5.38;;
10517;SDS011;5307;42.548;22.968;2022-09-13T00:48:48;5.63;;;5.05;;
10517;SDS011;5307;42.548;22.968;2022-09-13T00:51:18;5.25;;;4.75;;
10517;SDS011;5307;42.548;22.968;2022-09-13T00:53:46;6.72;;;4.75;;
10517;SDS011;5307;42.548;22.968;2022-09-13T00:56:20;5.60;;;4.70;;
10517;SDS011;5307;42.548;22.968;2022-09-13T00:58:53;7.72;;;5.13;;
10517;SDS011;5307;42.548;22.968;2022-09-13T01:01:25;6.15;;;4.85;;
10517;SDS011;5307;42.548;22.968;2022-09-13T01:03:57;8.52;;;4.88;;
10517;SDS011;5307;42.548;22.968;2022-09-13T01:06:26;5.57;;;4.75;;
10517;SDS011;5307;42.548;22.968;2022-09-13T01:08:57;6.97;;;5.13;;
10517;SDS011;5307;42.548;22.968;2022-09-13T01:11:28;8.93;;;5.28;;
10517;SDS011;5307;42.548;22.968;2022-09-13T01:14:02;7.72;;;5.00;;
10517;SDS011;5307;42.548;22.968;2022-09-13T01:16:30;6.68;;;5.28;;
10517;SDS011;5307;42.548;22.968;2022-09-13T01:18:57;6.85;;;4.88;;
10517;SDS011;5307;42.548;22.968;2022-09-13T01:27:29;5.95;;;5.35;;
10517;SDS011;5307;42.548;22.968;2022-09-13T01:30:09;6.60;;;4.95;;
10517;SDS011;5307;42.548;22.968;2022-09-13T01:32:49;5.05;;;4.55;;
10517;SDS011;5307;42.548;22.968;2022-09-13T01:35:40;5.90;;;5.28;;
10517;SDS011;5307;42.548;22.968;2022-09-13T01:38:17;8.27;;;5.32;;
10517;SDS011;5307;42.548;22.968;2022-09-13T01:41:05;6.70;;;4.85;;
10517;SDS011;5307;42.548;22.968;2022-09-13T01:43:41;5.53;;;5.03;;
10517;SDS011;5307;42.548;22.968;2022-09-13T01:46:20;6.00;;;5.15;;
10517;SDS011;5307;42.548;22.968;2022-09-13T01:48:53;6.93;;;5.88;;
10517;SDS011;5307;42.548;22.968;2022-09-13T01:51:26;8.25;;;5.32;;
10517;SDS011;5307;42.548;22.968;2022-09-13T01:56:42;7.35;;;5.20;;
10517;SDS011;5307;42.548;22.968;2022-09-13T01:59:19;8.18;;;5.53;;
10517;SDS011;5307;42.548;22.968;2022-09-13T02:01:53;6.97;;;5.30;;
10517;SDS011;5307;42.548;22.968;2022-09-13T02:04:26;5.88;;;5.28;;
10517;SDS011;5307;42.548;22.968;2022-09-13T02:06:59;9.25;;;5.13;;
10517;SDS011;5307;42.548;22.968;2022-09-13T02:09:32;7.40;;;5.38;;
10517;SDS011;5307;42.548;22.968;2022-09-13T02:12:02;8.27;;;5.78;;
10517;SDS011;5307;42.548;22.968;2022-09-13T02:14:34;6.95;;;5.72;;
10517;SDS011;5307;42.548;22.968;2022-09-13T02:17:05;8.95;;;5.05;;
10517;SDS011;5307;42.548;22.968;2022-09-13T02:19:36;6.10;;;5.50;;
10517;SDS011;5307;42.548;22.968;2022-09-13T02:22:07;7.70;;;5.57;;
10517;SDS011;5307;42.548;22.968;2022-09-13T02:24:37;7.70;;;5.72;;
10517;SDS011;5307;42.548;22.968;2022-09-13T02:27:08;7.38;;;5.55;;
10517;SDS011;5307;42.548;22.968;2022-09-13T02:29:39;6.40;;;5.80;;
10517;SDS011;5307;42.548;22.968;2022-09-13T02:32:09;6.82;;;6.13;;
10517;SDS011;5307;42.548;22.968;2022-09-13T02:34:42;8.05;;;6.20;;
10517;SDS011;5307;42.548;22.968;2022-09-13T02:37:12;6.72;;;5.22;;
10517;SDS011;5307;42.548;22.968;2022-09-13T02:39:40;6.43;;;5.75;;
10517;SDS011;5307;42.548;22.968;2022-09-13T02:42:14;12.20;;;6.15;;
10517;SDS011;5307;42.548;22.968;2022-09-13T02:44:45;7.10;;;5.57;;
10517;SDS011;5307;42.548;22.968;2022-09-13T02:47:22;10.25;;;6.75;;
10517;SDS011;5307;42.548;22.968;2022-09-13T02:50:03;10.45;;;5.78;;
10517;SDS011;5307;42.548;22.968;2022-09-13T02:52:38;10.23;;;5.93;;
10517;SDS011;5307;42.548;22.968;2022-09-13T02:55:15;11.80;;;6.72;;
10517;SDS011;5307;42.548;22.968;2022-09-13T02:57:58;8.80;;;5.97;;
10517;SDS011;5307;42.548;22.968;2022-09-13T03:00:27;9.52;;;7.68;;
10517;SDS011;5307;42.548;22.968;2022-09-13T03:02:57;11.23;;;7.10;;
10517;SDS011;5307;42.548;22.968;2022-09-13T03:05:28;8.20;;;6.45;;
10517;SDS011;5307;42.548;22.968;2022-09-13T03:07:55;7.68;;;6.72;;
10517;SDS011;5307;42.548;22.968;2022-09-13T03:10:23;7.22;;;5.93;;
10517;SDS011;5307;42.548;22.968;2022-09-13T03:13:01;9.38;;;6.20;;
10517;SDS011;5307;42.548;22.968;2022-09-13T03:15:44;8.88;;;7.40;;
10517;SDS011;5307;42.548;22.968;2022-09-13T03:18:30;8.02;;;6.03;;
10517;SDS011;5307;42.548;22.968;2022-09-13T03:21:07;12.50;;;7.18;;
10517;SDS011;5307;42.548;22.968;2022-09-13T03:23:44;12.40;;;6.55;;
10517;SDS011;5307;42.548;22.968;2022-09-13T03:26:24;10.98;;;5.88;;
10517;SDS011;5307;42.548;22.968;2022-09-13T03:29:05;10.75;;;6.70;;
10517;SDS011;5307;42.548;22.968;2022-09-13T03:31:40;8.77;;;6.80;;
10517;SDS011;5307;42.548;22.968;2022-09-13T03:34:17;7.47;;;6.20;;
10517;SDS011;5307;42.548;22.968;2022-09-13T03:36:54;10.48;;;6.50;;
10517;SDS011;5307;42.548;22.968;2022-09-13T03:39:27;7.15;;;5.80;;
10517;SDS011;5307;42.548;22.968;2022-09-13T03:42:03;11.63;;;6.10;;
10517;SDS011;5307;42.548;22.968;2022-09-13T03:44:39;10.35;;;6.20;;
10517;SDS011;5307;42.548;22.968;2022-09-13T03:47:08;10.82;;;6.22;;
10517;SDS011;5307;42.548;22.968;2022-09-13T03:49:37;11.13;;;6.15;;
10517;SDS011;5307;42.548;22.968;2022-09-13T03:52:05;8.20;;;6.40;;
10517;SDS011;5307;42.548;22.968;2022-09-13T03:54:35;13.15;;;5.80;;
10517;SDS011;5307;42.548;22.968;2022-09-13T03:57:07;6.18;;;5.57;;
10517;SDS011;5307;42.548;22.968;2022-09-13T03:59:35;8.50;;;5.90;;
10517;SDS011;5307;42.548;22.968;2022-09-13T04:02:03;10.48;;;5.88;;
10517;SDS011;5307;42.548;22.968;2022-09-13T04:04:30;10.23;;;6.45;;
10517;SDS011;5307;42.548;22.968;2022-09-13T04:06:58;7.18;;;6.38;;
10517;SDS011;5307;42.548;22.968;2022-09-13T04:09:26;7.88;;;5.53;;
10517;SDS011;5307;42.548;22.968;2022-09-13T04:11:52;9.85;;;6.18;;
10517;SDS011;5307;42.548;22.968;2022-09-13T04:14:19;11.93;;;6.35;;
10517;SDS011;5307;42.548;22.968;2022-09-13T04:16:47;8.48;;;6.35;;
10517;SDS011;5307;42.548;22.968;2022-09-13T04:19:14;11.93;;;5.65;;
10517;SDS011;5307;42.548;22.968;2022-09-13T04:21:41;20.50;;;6.47;;
10517;SDS011;5307;42.548;22.968;2022-09-13T04:24:09;9.18;;;6.38;;
10517;SDS011;5307;42.548;22.968;2022-09-13T04:26:36;9.45;;;5.97;;
10517;SDS011;5307;42.548;22.968;2022-09-13T04:29:03;11.48;;;6.18;;
10517;SDS011;5307;42.548;22.968;2022-09-13T04:31:30;10.98;;;6.70;;
10517;SDS011;5307;42.548;22.968;2022-09-13T04:33:57;10.75;;;7.38;;
10517;SDS011;5307;42.548;22.968;2022-09-13T04:36:24;10.40;;;6.95;;
10517;SDS011;5307;42.548;22.968;2022-09-13T04:38:51;11.75;;;6.88;;
10517;SDS011;5307;42.548;22.968;2022-09-13T04:41:19;9.75;;;7.07;;
10517;SDS011;5307;42.548;22.968;2022-09-13T04:43:47;20.65;;;7.50;;
10517;SDS011;5307;42.548;22.968;2022-09-13T04:46:15;13.00;;;8.20;;
10517;SDS011;5307;42.548;22.968;2022-09-13T04:48:42;17.30;;;7.43;;
10517;SDS011;5307;42.548;22.968;2022-09-13T04:51:13;18.38;;;8.25;;
10517;SDS011;5307;42.548;22.968;2022-09-13T04:53:40;10.82;;;7.68;;
10517;SDS011;5307;42.548;22.968;2022-09-13T04:56:07;15.30;;;8.05;;
10517;SDS011;5307;42.548;22.968;2022-09-13T04:58:36;17.38;;;9.65;;
10517;SDS011;5307;42.548;22.968;2022-09-13T05:01:03;17.55;;;11.43;;
10517;SDS011;5307;42.548;22.968;2022-09-13T05:03:31;19.33;;;9.43;;
10517;SDS011;5307;42.548;22.968;2022-09-13T05:06:02;16.20;;;8.90;;
10517;SDS011;5307;42.548;22.968;2022-09-13T05:08:29;17.60;;;8.18;;
10517;SDS011;5307;42.548;22.968;2022-09-13T05:10:57;16.50;;;8.68;;
10517;SDS011;5307;42.548;22.968;2022-09-13T05:13:23;11.77;;;8.10;;
10517;SDS011;5307;42.548;22.968;2022-09-13T05:15:54;14.57;;;8.82;;
10517;SDS011;5307;42.548;22.968;2022-09-13T05:18:22;13.57;;;8.25;;
10517;SDS011;5307;42.548;22.968;2022-09-13T05:20:52;15.82;;;8.82;;
10517;SDS011;5307;42.548;22.968;2022-09-13T05:23:19;14.40;;;8.48;;
10517;SDS011;5307;42.548;22.968;2022-09-13T05:25:51;15.77;;;8.93;;
10517;SDS011;5307;42.548;22.968;2022-09-13T05:28:18;16.77;;;9.32;;
10517;SDS011;5307;42.548;22.968;2022-09-13T05:30:52;14.70;;;9.80;;
10517;SDS011;5307;42.548;22.968;2022-09-13T05:33:21;13.70;;;9.70;;
10517;SDS011;5307;42.548;22.968;2022-09-13T05:35:49;12.52;;;9.43;;
10517;SDS011;5307;42.548;22.968;2022-09-13T05:38:16;17.55;;;9.38;;
10517;SDS011;5307;42.548;22.968;2022-09-13T05:40:43;17.10;;;10.05;;
10517;SDS011;5307;42.548;22.968;2022-09-13T05:43:10;12.25;;;8.93;;
10517;SDS011;5307;42.548;22.968;2022-09-13T05:45:37;15.60;;;9.38;;
10517;SDS011;5307;42.548;22.968;2022-09-13T05:48:05;11.90;;;8.77;;
10517;SDS011;5307;42.548;22.968;2022-09-13T05:50:35;18.20;;;7.95;;
10517;SDS011;5307;42.548;22.968;2022-09-13T05:53:03;13.43;;;7.95;;
10517;SDS011;5307;42.548;22.968;2022-09-13T05:55:30;14.63;;;8.60;;
10517;SDS011;5307;42.548;22.968;2022-09-13T05:57:58;15.85;;;8.35;;
10517;SDS011;5307;42.548;22.968;2022-09-13T06:00:26;12.93;;;7.88;;
10517;SDS011;5307;42.548;22.968;2022-09-13T06:02:54;16.83;;;8.00;;
10517;SDS011;5307;42.548;22.968;2022-09-13T06:05:22;19.55;;;8.45;;
10517;SDS011;5307;42.548;22.968;2022-09-13T06:07:49;9.20;;;7.28;;
10517;SDS011;5307;42.548;22.968;2022-09-13T06:10:16;9.90;;;7.00;;
10517;SDS011;5307;42.548;22.968;2022-09-13T06:12:44;17.33;;;7.40;;
10517;SDS011;5307;42.548;22.968;2022-09-13T06:15:11;9.80;;;8.02;;
10517;SDS011;5307;42.548;22.968;2022-09-13T06:17:39;10.23;;;7.75;;
10517;SDS011;5307;42.548;22.968;2022-09-13T06:20:06;13.27;;;7.65;;
10517;SDS011;5307;42.548;22.968;2022-09-13T06:22:36;12.50;;;7.70;;
10517;SDS011;5307;42.548;22.968;2022-09-13T06:25:03;10.50;;;7.60;;
10517;SDS011;5307;42.548;22.968;2022-09-13T06:27:30;10.25;;;7.10;;
10517;SDS011;5307;42.548;22.968;2022-09-13T06:29:57;10.02;;;7.30;;
10517;SDS011;5307;42.548;22.968;2022-09-13T06:32:24;14.73;;;7.75;;
10517;SDS011;5307;42.548;22.968;2022-09-13T06:34:50;10.65;;;7.60;;
10517;SDS011;5307;42.548;22.968;2022-09-13T06:37:17;13.00;;;7.50;;
10517;SDS011;5307;42.548;22.968;2022-09-13T06:39:46;9.85;;;6.78;;
10517;SDS011;5307;42.548;22.968;2022-09-13T06:42:13;9.48;;;7.10;;
10517;SDS011;5307;42.548;22.968;2022-09-13T06:44:40;9.63;;;7.25;;
10517;SDS011;5307;42.548;22.968;2022-09-13T06:47:07;10.77;;;7.28;;
10517;SDS011;5307;42.548;22.968;2022-09-13T06:49:35;11.52;;;7.03;;
10517;SDS011;5307;42.548;22.968;2022-09-13T06:52:02;12.65;;;6.88;;
10517;SDS011;5307;42.548;22.968;2022-09-13T06:54:28;9.70;;;6.45;;
10517;SDS011;5307;42.548;22.968;2022-09-13T06:56:57;12.25;;;6.55;;
10517;SDS011;5307;42.548;22.968;2022-09-13T06:59:23;8.35;;;5.38;;
10517;SDS011;5307;42.548;22.968;2022-09-13T07:01:50;7.53;;;4.90;;
10517;SDS011;5307;42.548;22.968;2022-09-13T07:04:17;6.22;;;4.18;;
10517;SDS011;5307;42.548;22.968;2022-09-13T07:06:45;4.88;;;4.10;;
10517;SDS011;5307;42.548;22.968;2022-09-13T07:09:13;7.50;;;4.13;;
10517;SDS011;5307;42.548;22.968;2022-09-13T07:11:42;4.43;;;3.90;;
10517;SDS011;5307;42.548;22.968;2022-09-13T07:14:13;6.93;;;4.07;;
10517;SDS011;5307;42.548;22.968;2022-09-13T07:16:40;5.53;;;4.20;;
10517;SDS011;5307;42.548;22.968;2022-09-13T07:19:11;4.07;;;3.67;;
10517;SDS011;5307;42.548;22.968;2022-09-13T07:21:40;4.05;;;3.65;;
10517;SDS011;5307;42.548;22.968;2022-09-13T07:24:07;10.90;;;4.13;;
10517;SDS011;5307;42.548;22.968;2022-09-13T07:26:35;4.25;;;3.50;;
10517;SDS011;5307;42.548;22.968;2022-09-13T07:29:03;14.32;;;6.88;;
10517;SDS011;5307;42.548;22.968;2022-09-13T07:31:33;3.55;;;2.90;;
10517;SDS011;5307;42.548;22.968;2022-09-13T07:34:01;4.30;;;3.60;;
10517;SDS011;5307;42.548;22.968;2022-09-13T07:36:31;4.72;;;2.83;;
10517;SDS011;5307;42.548;22.968;2022-09-13T07:38:59;4.95;;;3.20;;
10517;SDS011;5307;42.548;22.968;2022-09-13T07:41:27;4.63;;;3.65;;
10517;SDS011;5307;42.548;22.968;2022-09-13T07:43:57;5.20;;;3.30;;
10517;SDS011;5307;42.548;22.968;2022-09-13T07:46:26;5.22;;;3.80;;
10517;SDS011;5307;42.548;22.968;2022-09-13T07:48:58;4.50;;;3.60;;
10517;SDS011;5307;42.548;22.968;2022-09-13T07:51:27;4.15;;;3.75;;
10517;SDS011;5307;42.548;22.968;2022-09-13T07:53:55;6.97;;;4.18;;
10517;SDS011;5307;42.548;22.968;2022-09-13T07:56:23;3.63;;;3.30;;
10517;SDS011;5307;42.548;22.968;2022-09-13T07:58:52;4.68;;;3.22;;
10517;SDS011;5307;42.548;22.968;2022-09-13T08:01:20;4.15;;;3.05;;
10517;SDS011;5307;42.548;22.968;2022-09-13T08:03:51;5.03;;;3.25;;
10517;SDS011;5307;42.548;22.968;2022-09-13T08:06:21;5.55;;;3.40;;
10517;SDS011;5307;42.548;22.968;2022-09-13T08:08:48;4.00;;;3.38;;
10517;SDS011;5307;42.548;22.968;2022-09-13T08:11:15;6.10;;;4.38;;
10517;SDS011;5307;42.548;22.968;2022-09-13T08:13:44;4.40;;;3.30;;
10517;SDS011;5307;42.548;22.968;2022-09-13T08:16:11;3.53;;;2.58;;
10517;SDS011;5307;42.548;22.968;2022-09-13T08:18:42;4.68;;;3.00;;
10517;SDS011;5307;42.548;22.968;2022-09-13T08:21:09;2.92;;;2.60;;
10517;SDS011;5307;42.548;22.968;2022-09-13T08:23:37;2.55;;;2.15;;
10517;SDS011;5307;42.548;22.968;2022-09-13T08:26:04;4.13;;;2.50;;
10517;SDS011;5307;42.548;22.968;2022-09-13T08:28:33;3.83;;;2.28;;
10517;SDS011;5307;42.548;22.968;2022-09-13T08:39:50;2.55;;;2.35;;
10517;SDS011;5307;42.548;22.968;2022-09-13T08:42:22;5.47;;;2.58;;
10517;SDS011;5307;42.548;22.968;2022-09-13T08:44:56;4.45;;;2.13;;
10517;SDS011;5307;42.548;22.968;2022-09-13T08:47:34;3.42;;;2.00;;
10517;SDS011;5307;42.548;22.968;2022-09-13T08:50:09;5.30;;;2.45;;
10517;SDS011;5307;42.548;22.968;2022-09-13T08:52:42;3.75;;;2.30;;
10517;SDS011;5307;42.548;22.968;2022-09-13T08:55:20;4.97;;;2.47;;
10517;SDS011;5307;42.548;22.968;2022-09-13T08:57:54;1.98;;;1.80;;
10517;SDS011;5307;42.548;22.968;2022-09-13T09:00:29;2.38;;;1.95;;
10517;SDS011;5307;42.548;22.968;2022-09-13T09:03:03;3.47;;;2.47;;
10517;SDS011;5307;42.548;22.968;2022-09-13T09:05:43;3.97;;;2.38;;
10517;SDS011;5307;42.548;22.968;2022-09-13T09:08:14;3.17;;;2.55;;
10517;SDS011;5307;42.548;22.968;2022-09-13T09:10:57;2.70;;;2.13;;
10517;SDS011;5307;42.548;22.968;2022-09-13T09:13:30;2.60;;;2.40;;
10517;SDS011;5307;42.548;22.968;2022-09-13T09:16:01;3.83;;;3.05;;
10517;SDS011;5307;42.548;22.968;2022-09-13T09:18:33;2.97;;;2.47;;
10517;SDS011;5307;42.548;22.968;2022-09-13T09:21:03;2.67;;;2.30;;
10517;SDS011;5307;42.548;22.968;2022-09-13T09:23:34;3.90;;;2.55;;
10517;SDS011;5307;42.548;22.968;2022-09-13T09:26:12;2.40;;;2.20;;
10517;SDS011;5307;42.548;22.968;2022-09-13T09:28:41;3.25;;;2.30;;
10517;SDS011;5307;42.548;22.968;2022-09-13T09:31:09;2.08;;;1.88;;
10517;SDS011;5307;42.548;22.968;2022-09-13T09:36:31;2.22;;;2.03;;
10517;SDS011;5307;42.548;22.968;2022-09-13T09:39:03;5.82;;;2.70;;
10517;SDS011;5307;42.548;22.968;2022-09-13T09:41:33;3.60;;;2.40;;
10517;SDS011;5307;42.548;22.968;2022-09-13T09:44:05;3.58;;;2.28;;
10517;SDS011;5307;42.548;22.968;2022-09-13T09:46:41;2.72;;;2.53;;
10517;SDS011;5307;42.548;22.968;2022-09-13T09:49:13;2.38;;;2.10;;
10517;SDS011;5307;42.548;22.968;2022-09-13T09:52:00;3.85;;;2.67;;
10517;SDS011;5307;42.548;22.968;2022-09-13T09:54:31;4.32;;;2.40;;
10517;SDS011;5307;42.548;22.968;2022-09-13T09:57:00;2.50;;;2.30;;
10517;SDS011;5307;42.548;22.968;2022-09-13T09:59:28;3.92;;;2.35;;
10517;SDS011;5307;42.548;22.968;2022-09-13T10:01:57;2.58;;;2.38;;
10517;SDS011;5307;42.548;22.968;2022-09-13T10:04:26;3.05;;;2.17;;
10517;SDS011;5307;42.548;22.968;2022-09-13T10:07:07;3.25;;;2.40;;
10517;SDS011;5307;42.548;22.968;2022-09-13T10:09:36;7.03;;;5.95;;
10517;SDS011;5307;42.548;22.968;2022-09-13T10:12:04;2.72;;;2.53;;
10517;SDS011;5307;42.548;22.968;2022-09-13T10:14:36;3.25;;;2.45;;
10517;SDS011;5307;42.548;22.968;2022-09-13T10:17:15;2.47;;;2.28;;
10517;SDS011;5307;42.548;22.968;2022-09-13T10:19:50;2.58;;;2.28;;
10517;SDS011;5307;42.548;22.968;2022-09-13T10:22:19;3.78;;;2.40;;
10517;SDS011;5307;42.548;22.968;2022-09-13T10:28:03;6.97;;;6.25;;
10517;SDS011;5307;42.548;22.968;2022-09-13T10:30:34;3.28;;;2.75;;
10517;SDS011;5307;42.548;22.968;2022-09-13T10:33:03;4.15;;;3.63;;
10517;SDS011;5307;42.548;22.968;2022-09-13T10:35:32;4.68;;;2.67;;
10517;SDS011;5307;42.548;22.968;2022-09-13T10:37:59;2.30;;;2.10;;
10517;SDS011;5307;42.548;22.968;2022-09-13T10:40:27;5.28;;;2.65;;
10517;SDS011;5307;42.548;22.968;2022-09-13T10:42:58;3.15;;;1.90;;
10517;SDS011;5307;42.548;22.968;2022-09-13T10:45:29;2.55;;;1.85;;
10517;SDS011;5307;42.548;22.968;2022-09-13T10:47:57;2.97;;;2.70;;
10517;SDS011;5307;42.548;22.968;2022-09-13T10:50:30;2.38;;;2.13;;
10517;SDS011;5307;42.548;22.968;2022-09-13T10:52:58;3.88;;;2.38;;
10517;SDS011;5307;42.548;22.968;2022-09-13T10:55:30;2.45;;;2.25;;
10517;SDS011;5307;42.548;22.968;2022-09-13T10:58:11;4.57;;;1.83;;
10517;SDS011;5307;42.548;22.968;2022-09-13T11:03:48;2.20;;;2.00;;
10517;SDS011;5307;42.548;22.968;2022-09-13T11:06:34;2.25;;;2.05;;
10517;SDS011;5307;42.548;22.968;2022-09-13T11:09:09;2.47;;;2.28;;
10517;SDS011;5307;42.548;22.968;2022-09-13T11:11:41;2.53;;;2.33;;
10517;SDS011;5307;42.548;22.968;2022-09-13T11:14:27;2.50;;;2.30;;
10517;SDS011;5307;42.548;22.968;2022-09-13T11:17:12;1.63;;;1.40;;
10517;SDS011;5307;42.548;22.968;2022-09-13T11:22:59;5.07;;;1.77;;
10517;SDS011;5307;42.548;22.968;2022-09-13T11:25:50;2.20;;;1.80;;
10517;SDS011;5307;42.548;22.968;2022-09-13T11:28:30;2.13;;;1.60;;
10517;SDS011;5307;42.548;22.968;2022-09-13T11:31:17;2.17;;;1.90;;
10517;SDS011;5307;42.548;22.968;2022-09-13T11:33:58;1.80;;;1.70;;
10517;SDS011;5307;42.548;22.968;2022-09-13T11:39:30;2.25;;;2.05;;
10517;SDS011;5307;42.548;22.968;2022-09-13T11:42:04;4.07;;;2.03;;
10517;SDS011;5307;42.548;22.968;2022-09-13T11:44:45;2.53;;;2.05;;
10517;SDS011;5307;42.548;22.968;2022-09-13T11:47:26;4.80;;;2.40;;
10517;SDS011;5307;42.548;22.968;2022-09-13T11:50:17;4.10;;;1.92;;
10517;SDS011;5307;42.548;22.968;2022-09-13T11:53:09;2.13;;;1.80;;
10517;SDS011;5307;42.548;22.968;2022-09-13T11:55:53;2.75;;;1.60;;
10517;SDS011;5307;42.548;22.968;2022-09-13T11:58:25;1.83;;;1.70;;
10517;SDS011;5307;42.548;22.968;2022-09-13T12:00:58;2.03;;;1.80;;
10517;SDS011;5307;42.548;22.968;2022-09-13T12:03:29;3.50;;;2.00;;
10517;SDS011;5307;42.548;22.968;2022-09-13T12:06:04;2.65;;;2.00;;
10517;SDS011;5307;42.548;22.968;2022-09-13T12:08:39;2.90;;;2.60;;
10517;SDS011;5307;42.548;22.968;2022-09-13T12:11:12;1.65;;;1.55;;
10517;SDS011;5307;42.548;22.968;2022-09-13T12:13:44;3.03;;;1.75;;
10517;SDS011;5307;42.548;22.968;2022-09-13T12:16:15;1.70;;;1.58;;
10517;SDS011;5307;42.548;22.968;2022-09-13T12:18:43;2.08;;;1.70;;
10517;SDS011;5307;42.548;22.968;2022-09-13T12:21:14;1.40;;;1.30;;
10517;SDS011;5307;42.548;22.968;2022-09-13T12:23:48;3.50;;;1.80;;
10517;SDS011;5307;42.548;22.968;2022-09-13T12:26:20;2.13;;;2.00;;
10517;SDS011;5307;42.548;22.968;2022-09-13T12:28:52;2.20;;;1.73;;
10517;SDS011;5307;42.548;22.968;2022-09-13T12:31:23;3.45;;;2.70;;
10517;SDS011;5307;42.548;22.968;2022-09-13T12:33:52;2.17;;;1.90;;
10517;SDS011;5307;42.548;22.968;2022-09-13T12:36:38;1.85;;;1.75;;
10517;SDS011;5307;42.548;22.968;2022-09-13T12:39:25;2.22;;;1.70;;
10517;SDS011;5307;42.548;22.968;2022-09-13T12:42:05;8.55;;;2.00;;
10517;SDS011;5307;42.548;22.968;2022-09-13T12:44:50;2.45;;;1.70;;
10517;SDS011;5307;42.548;22.968;2022-09-13T12:50:28;2.67;;;1.80;;
10517;SDS011;5307;42.548;22.968;2022-09-13T12:53:14;9.73;;;2.33;;
10517;SDS011;5307;42.548;22.968;2022-09-13T12:56:09;6.18;;;2.72;;
10517;SDS011;5307;42.548;22.968;2022-09-13T12:58:56;4.78;;;2.63;;
10517;SDS011;5307;42.548;22.968;2022-09-13T13:01:37;6.57;;;2.50;;
10517;SDS011;5307;42.548;22.968;2022-09-13T13:04:12;3.08;;;2.05;;
10517;SDS011;5307;42.548;22.968;2022-09-13T13:06:46;3.38;;;2.05;;
10517;SDS011;5307;42.548;22.968;2022-09-13T13:09:21;4.90;;;1.80;;
10517;SDS011;5307;42.548;22.968;2022-09-13T13:11:51;3.60;;;1.80;;
10517;SDS011;5307;42.548;22.968;2022-09-13T13:14:25;10.80;;;5.07;;
10517;SDS011;5307;42.548;22.968;2022-09-13T13:16:54;2.80;;;2.60;;
10517;SDS011;5307;42.548;22.968;2022-09-13T13:19:41;5.65;;;3.08;;
10517;SDS011;5307;42.548;22.968;2022-09-13T13:25:29;3.28;;;2.45;;
10517;SDS011;5307;42.548;22.968;2022-09-13T13:28:01;2.35;;;2.15;;
10517;SDS011;5307;42.548;22.968;2022-09-13T13:33:25;3.63;;;3.13;;
10517;SDS011;5307;42.548;22.968;2022-09-13T13:35:53;3.47;;;3.17;;
10517;SDS011;5307;42.548;22.968;2022-09-13T13:38:38;7.40;;;3.20;;
10517;SDS011;5307;42.548;22.968;2022-09-13T13:41:28;4.50;;;3.03;;
10517;SDS011;5307;42.548;22.968;2022-09-13T13:50:12;3.33;;;2.97;;
10517;SDS011;5307;42.548;22.968;2022-09-13T13:52:49;4.28;;;2.70;;
10517;SDS011;5307;42.548;22.968;2022-09-13T13:55:25;4.93;;;2.95;;
10517;SDS011;5307;42.548;22.968;2022-09-13T13:57:58;3.63;;;3.20;;
10517;SDS011;5307;42.548;22.968;2022-09-13T14:00:28;2.60;;;2.40;;
10517;SDS011;5307;42.548;22.968;2022-09-13T14:02:59;3.05;;;2.83;;
10517;SDS011;5307;42.548;22.968;2022-09-13T14:05:40;8.32;;;2.80;;
10517;SDS011;5307;42.548;22.968;2022-09-13T14:11:13;3.20;;;2.75;;
10517;SDS011;5307;42.548;22.968;2022-09-13T14:13:56;5.15;;;3.08;;
10517;SDS011;5307;42.548;22.968;2022-09-13T14:16:36;5.38;;;3.00;;
10517;SDS011;5307;42.548;22.968;2022-09-13T14:19:18;4.07;;;2.75;;
10517;SDS011;5307;42.548;22.968;2022-09-13T14:24:41;3.55;;;3.20;;
10517;SDS011;5307;42.548;22.968;2022-09-13T14:27:14;4.80;;;2.45;;
10517;SDS011;5307;42.548;22.968;2022-09-13T14:29:44;8.82;;;3.10;;
10517;SDS011;5307;42.548;22.968;2022-09-13T14:32:14;3.78;;;2.78;;
10517;SDS011;5307;42.548;22.968;2022-09-13T14:34:51;6.32;;;3.60;;
10517;SDS011;5307;42.548;22.968;2022-09-13T14:37:23;3.55;;;2.63;;
10517;SDS011;5307;42.548;22.968;2022-09-13T14:39:57;3.85;;;2.95;;
10517;SDS011;5307;42.548;22.968;2022-09-13T14:42:25;6.20;;;3.03;;
10517;SDS011;5307;42.548;22.968;2022-09-13T14:45:03;3.05;;;2.80;;
10517;SDS011;5307;42.548;22.968;2022-09-13T14:47:31;3.30;;;3.00;;
10517;SDS011;5307;42.548;22.968;2022-09-13T14:50:03;3.85;;;3.10;;
10517;SDS011;5307;42.548;22.968;2022-09-13T14:52:39;5.18;;;3.30;;
10517;SDS011;5307;42.548;22.968;2022-09-13T14:55:13;4.78;;;3.40;;
10517;SDS011;5307;42.548;22.968;2022-09-13T14:57:45;7.03;;;3.97;;
10517;SDS011;5307;42.548;22.968;2022-09-13T15:00:16;6.93;;;4.68;;
10517;SDS011;5307;42.548;22.968;2022-09-13T15:02:45;5.85;;;4.88;;
10517;SDS011;5307;42.548;22.968;2022-09-13T15:05:17;5.65;;;4.35;;
10517;SDS011;5307;42.548;22.968;2022-09-13T15:07:47;8.65;;;4.10;;
10517;SDS011;5307;42.548;22.968;2022-09-13T15:10:22;6.72;;;4.07;;
10517;SDS011;5307;42.548;22.968;2022-09-13T15:12:53;5.10;;;4.35;;
10517;SDS011;5307;42.548;22.968;2022-09-13T15:15:31;4.45;;;3.53;;
10517;SDS011;5307;42.548;22.968;2022-09-13T15:18:00;6.10;;;3.20;;
10517;SDS011;5307;42.548;22.968;2022-09-13T15:20:42;3.25;;;2.92;;
10517;SDS011;5307;42.548;22.968;2022-09-13T15:23:12;5.60;;;3.28;;
10517;SDS011;5307;42.548;22.968;2022-09-13T15:25:40;6.88;;;3.15;;
10517;SDS011;5307;42.548;22.968;2022-09-13T15:28:17;5.07;;;3.10;;
10517;SDS011;5307;42.548;22.968;2022-09-13T15:30:47;3.00;;;2.80;;
10517;SDS011;5307;42.548;22.968;2022-09-13T15:33:21;6.55;;;3.33;;
10517;SDS011;5307;42.548;22.968;2022-09-13T15:35:51;3.00;;;2.80;;
10517;SDS011;5307;42.548;22.968;2022-09-13T15:38:53;3.30;;;3.00;;
10517;SDS011;5307;42.548;22.968;2022-09-13T15:41:26;5.82;;;2.78;;
10517;SDS011;5307;42.548;22.968;2022-09-13T15:43:55;6.75;;;3.63;;
10517;SDS011;5307;42.548;22.968;2022-09-13T15:46:22;6.53;;;3.90;;
10517;SDS011;5307;42.548;22.968;2022-09-13T15:48:50;5.75;;;3.30;;
10517;SDS011;5307;42.548;22.968;2022-09-13T15:51:20;10.55;;;4.30;;
10517;SDS011;5307;42.548;22.968;2022-09-13T15:53:47;7.25;;;4.20;;
10517;SDS011;5307;42.548;22.968;2022-09-13T15:56:15;10.65;;;3.30;;
10517;SDS011;5307;42.548;22.968;2022-09-13T15:58:44;6.30;;;3.50;;
10517;SDS011;5307;42.548;22.968;2022-09-13T16:01:11;5.75;;;2.92;;
10517;SDS011;5307;42.548;22.968;2022-09-13T16:03:39;7.05;;;3.35;;
10517;SDS011;5307;42.548;22.968;2022-09-13T16:06:06;7.20;;;3.55;;
10517;SDS011;5307;42.548;22.968;2022-09-13T16:08:36;5.50;;;4.00;;